Lake Superior Ecology  banner To Chemistry To Michigan Tech Home Page To Michigan Tech Home Page To the College of Engineering To Civil and Environmental Engineering To Biological Sciences To WUP Center To Ecology of Lake Superior  2006 Course

Home
Faculty
Students
Travelogue
Ships Log

Sponsors
* Western U.P. Center for Science, Mathematics and Environmental Education
* Michigan Technological University Departments of Civil & Environmental Engineering, Biological Sciences, Chemistry, and Education

US EPA
GLNP-EPA

Research Vessel Lake Guardian provided by the Great Lakes National Program Office of the U.S. Environmental Protection Agency


Ship's Log
Event Date-Time GMT (deduct 4 hrs.) Log Comments Latitude Longitude Depth (needs x.973) TWA TWS AWA AWS TWD Pressure SST Air T
7/8/2006 4:58 Depart DECC 4646.8201 N 09205.8401 W +6.41 m P 179 5.90 Kn P 179 5.90 Kn 221 30.0 hg In +21.8 C +25.7 C
7/8/2006 5:11 Duluth Piers 4646.8201 N 09205.2901 W +15.0 m S 150 6.69 Kn S 35 5.90 Kn 214 30.0 hg In +21.8 C +25.4 C
7/8/2006 5:27 4647.7501 N 09201.3400 W +25.9 m S 133 8.79 Kn S 51 8.30 Kn 202 30.0 hg In +21.0 C +20.1 C
7/8/2006 6:27 4651.3102 N 09146.0401 W +74 m S 143 11.56 Kn S 76 7.10 Kn 214 30.0 hg In +19.8 C +22.3 C
7/8/2006 7:27 4654.9102 N 09130.4103 W +132 m S 143 11.22 Kn S 71 7.10 Kn 213 30.0 hg In +18.5 C +19.8 C
7/8/2006 8:27 4658.4800 N 09114.6801 W +135 m S 146 13.81 Kn S 92 7.70 Kn 216 30.0 hg In +18.1 C +21.3 C
7/8/2006 9:27 4702.0300 N 09058.8503 W +73 m S 153 14.60 Kn S 105 6.90 Kn 224 29.9 hg In +17.7 C +19.9 C
7/8/2006 10:24 Devil's Island C/C 083T 4705.3601 N 09043.8200 W +27.9 m S 76 10.18 Kn S 36 16.80 Kn 148 29.9 hg In +19.4 C +21.2 C
7/8/2006 10:27 4705.4401 N 09042.9603 W +33 m S 62 11.16 Kn S 31 19.10 Kn 144 29.9 hg In +19.3 C +21.3 C
7/8/2006 11:27 4706.8402 N 09026.6100 W +31 m S 108 14.80 Kn S 65 15.50 Kn 189 29.9 hg In +19.0 C +20.9 C
7/8/2006 12:27 4708.2102 N 09010.1602 W +114 m S 136 17.25 Kn S 96 12.10 Kn 217 29.9 hg In +18.5 C +20.8 C
7/8/2006 13:27 4709.5302 N 08953.7600 W +190 m S 150 17.06 Kn S 114 9.20 Kn 231 29.9 hg In +18.3 C +19.6 C
7/8/2006 14:27 4710.7901 N 08937.7003 W +205 m S 137 18.79 Kn S 102 13.20 Kn 219 29.9 hg In +17.6 C +18.4 C
7/8/2006 15:27 4711.9800 N 08922.1201 W +183 m S 141 16.67 Kn S 101 10.70 Kn 224 29.9 hg In +14.8 C +17.8 C
7/8/2006 16:27 4713.1400 N 08906.3001 W +114 m S 125 18.45 Kn S 88 15.20 Kn 209 29.9 hg In +16.2 C +18.7 C
7/8/2006 17:25 c/c 091T 4714.2600 N 08850.5101 W +71 m S 139 17.18 Kn S 95 11.40 Kn 229 29.9 hg In +18.4 C +20.3 C
7/8/2006 17:27 4714.2502 N 08849.8200 W +65 m S 141 14.15 Kn S 84 9.00 Kn 231 29.9 hg In +18.4 C +20.2 C
7/8/2006 18:07 (2:07 pm EDT) Keweenaw Upper Entry 4714.1000 N 08837.9903 W +10.1 m S 105 15.41 Kn S 62 16.90 Kn 214 29.9 hg In +18.6 C +22.1 C
7/8/2006 18:27 4710.8901 N 08837.7899 W +7.30 m P 14 13.66 Kn P 9 21.80 Kn 197 29.9 hg In +19.1 C +21.6 C
7/8/2006 19:27 4707.3100 N 08832.9202 W +7.08 m P 84 3.58 Kn P 66 3.90 Kn 205 29.9 hg In +20.3 C +24.0 C
7/8/2006 19:35 Moored MTU Power House Dock 4707.3000 N 08832.9202 W +6.11 m P 49 6.90 Kn P 49 6.90 Kn 242 29.9 hg In +20.3 C +24.1 C
7/8/2006 20:27 4707.3000 N 08832.9202 W +6.14 m P 10 11.70 Kn P 10 11.70 Kn 281 29.8 hg In +20.3 C +26.1 C
7/8/2006 21:27 4707.3000 N 08832.9202 W +6.14 m P 19 7.20 Kn P 19 7.20 Kn 272 29.8 hg In +20.6 C +28.2 C
7/8/2006 22:27 4707.3000 N 08832.9202 W +6.08 m P 29 5.80 Kn P 29 5.80 Kn 262 29.8 hg In +20.8 C +28.8 C
7/8/2006 23:27 4707.3000 N 08832.9202 W +6.08 m P 59 6.10 Kn P 59 6.10 Kn 232 29.8 hg In +20.8 C +28.7 C
7/9/2006 0:27 4707.3000 N 08832.9202 W +6.14 m P 23 3.00 Kn P 23 3.00 Kn 268 29.8 hg In +21.1 C +28.4 C
7/9/2006 1:27 4707.3000 N 08832.9202 W +6.11 m P 43 3.60 Kn P 43 3.60 Kn 248 29.8 hg In +21.1 C +27.3 C
7/9/2006 2:27 4707.3000 N 08832.9202 W +6.08 m P 6 6.30 Kn P 6 6.30 Kn 285 29.8 hg In +21.0 C +26.4 C
7/9/2006 3:27 4707.3000 N 08832.9202 W +6.08 m P 13 6.80 Kn P 13 6.80 Kn 278 29.8 hg In +21.0 C +26.1 C
7/9/2006 4:27 4707.3000 N 08832.9202 W +6.08 m S 20 9.00 Kn S 20 9.00 Kn 311 29.8 hg In +21.0 C +25.0 C
7/9/2006 5:27 4707.3000 N 08832.9202 W +6.08 m S 6 11.90 Kn S 6 11.90 Kn 297 29.8 hg In +21.0 C +24.5 C
7/9/2006 5:59 (1:59 am EDT) Depart MTU Dock 4707.3000 N 08832.9202 W +6.17 m S 13 7.80 Kn S 13 7.80 Kn 305 29.8 hg In +21.1 C +23.7 C
7/9/2006 6:27 4705.4900 N 08830.1802 W +13.6 m S 106 4.52 Kn S 22 11.60 Kn 283 29.8 hg In +21.5 C +24.1 C
7/9/2006 7:18 Keweenaw Lower C-073T 4658.1901 N 08825.9501 W +7.51 m S 25 5.93 Kn S 10 14.30 Kn 194 29.8 hg In +20.8 C +20.2 C
7/9/2006 7:27 4658.1700 N 08823.7601 W +46 m S 137 9.79 Kn S 54 8.30 Kn 210 29.8 hg In +15.3 C +19.7 C
7/9/2006 8:27 4701.6602 N 08806.8402 W +61 m S 171 12.18 Kn S 91 1.90 Kn 243 29.8 hg In +16.4 C +19.3 C
7/9/2006 9:27 4705.1300 N 08749.8203 W +116 m P 176 11.68 Kn P 60 0.90 Kn 257 29.8 hg In +16.9 C +19.3 C
7/9/2006 10:27 4708.5401 N 08732.9000 W +107 m P 152 9.16 Kn P 47 5.90 Kn 281 29.8 hg In +17.3 C +18.1 C
7/9/2006 11:01 Abandon Ship Drill 4709.8802 N 08726.1402 W +135 m P 167 7.82 Kn P 72 1.90 Kn 264 29.8 hg In +16.6 C +17.7 C
7/9/2006 11:24 Secure from Abandon Ship Drill 4710.7500 N 08721.7101 W +145 m P 155 8.29 Kn P 63 3.90 Kn 276 29.8 hg In +16.2 C +16.9 C
7/9/2006 11:27 4710.8701 N 08721.1003 W +155 m P 157 9.07 Kn P 83 3.50 Kn 274 29.8 hg In +16.2 C +16.9 C
7/9/2006 12:27 4711.7700 N 08714.2401 W +70 m P 9 5.40 Kn P 9 5.60 Kn 329 29.8 hg In +15.0 C +15.2 C
7/9/2006 13:27 4711.7200 N 08714.2503 W +66 m S 15 23.01 Kn S 15 23.40 Kn 355 29.8 hg In +12.9 C +14.8 C
7/9/2006 14:14 4711.9300 N 08714.8003 W +158 m S 28 18.82 Kn S 25 20.70 Kn 358 29.9 hg In +12.7 C +13.6 C
7/9/2006 14:27 4711.8602 N 08714.9703 W +165 m S 24 21.51 Kn S 24 21.60 Kn 30 29.8 hg In +12.7 C +12.8 C
7/9/2006 15:27 4711.7800 N 08715.4400 W +177 m S 17 11.82 Kn S 16 12.30 Kn 39 29.9 hg In +11.8 C +11.3 C
7/9/2006 15:57 Depart Station Enroute to MTU Deep Hole 4711.6401 N 08716.0100 W +182 m S 87 18.50 Kn S 81 18.70 Kn 44 29.9 hg In +11.5 C +10.9 C
7/9/2006 16:27 4715.0001 N 08714.7503 W +204 m S 23 27.15 Kn S 17 36.00 Kn 42 29.8 hg In +11.3 C +10.0 C
7/9/2006 17:27 4724.7801 N 08710.6403 W +316 m S 29 21.58 Kn S 21 29.30 Kn 47 29.9 hg In +10.0 C +9.5 C
7/9/2006 18:27 4732.5901 N 08707.7003 W +328 m P 18 20.10 Kn P 13 28.00 Kn 359 29.9 hg In +8.4 C +9.3 C
7/9/2006 19:27 4740.0400 N 08704.8800 W +301 m S 4 25.81 Kn S 3 33.30 Kn 23 29.9 hg In +7.7 C +9.1 C
7/9/2006 20:27 4747.4601 N 08702.0400 W +263 m S 9 22.38 Kn S 7 30.00 Kn 29 29.9 hg In +7.9 C +8.6 C
7/9/2006 21:27 4755.4700 N 08658.9701 W +236 m P 7 24.14 Kn P 5 32.30 Kn 11 30.0 hg In +7.7 C +8.5 C
7/9/2006 22:27 4803.3400 N 08655.9403 W +242 m S 17 19.12 Kn S 12 26.30 Kn 33 30.0 hg In +8.1 C +8.5 C
7/9/2006 23:27 4811.4402 N 08652.8000 W +196 m S 12 16.82 Kn S 8 24.90 Kn 30 30.0 hg In +7.5 C +9.1 C
7/10/2006 0:27 4819.9401 N 08649.4903 W +207 m S 11 10.48 Kn S 6 18.90 Kn 27 30.0 hg In +7.5 C +10.0 C
7/10/2006 1:27 4827.3601 N 08646.5901 W +136 m S 22 8.09 Kn S 11 15.70 Kn 37 30.0 hg In +8.6 C +10.8 C
7/10/2006 2:27 4834.7701 N 08643.6599 W +117 m S 18 7.38 Kn S 9 14.40 Kn 32 30.0 hg In +8.6 C +12.1 C
7/10/2006 3:27 4841.8201 N 08640.8503 W +178 m P 10 9.66 Kn P 6 16.40 Kn 8 30.0 hg In +10.2 C +13.7 C
7/10/2006 3:38 MTU PIC ISLAND @ 2330EST 4842.8801 N 08640.2503 W +151 m P 18 11.20 Kn P 11 17.70 Kn 6 30.0 hg In +10.9 C +13.7 C
7/10/2006 4:09 On Station Ashburton 15m 4846.3502 N 08638.1103 W +15.5 m S 157 3.17 Kn S 155 2.90 Kn 33 30.1 hg In +10.7 C +12.9 C
7/10/2006 4:12 4846.3502 N 08638.1000 W +15.3 m P 146 4.46 Kn P 144 4.30 Kn 79 30.1 hg In +10.7 C +13.2 C
7/10/2006 4:27 4846.3401 N 08638.1201 W +16.0 m S 170 6.50 Kn S 170 6.30 Kn 36 30.1 hg In +10.7 C +12.9 C
7/10/2006 4:36 On Station 30m 4846.1700 N 08638.4803 W +31 m S 163 7.07 Kn S 156 5.20 Kn 31 30.1 hg In +10.7 C +13.1 C
7/10/2006 4:47 On Station 40m 4846.0201 N 08638.8000 W +42 m S 152 9.03 Kn S 145 7.50 Kn 37 30.1 hg In +10.6 C +12.4 C
7/10/2006 5:18 On Station 50M 4845.9201 N 08639.0602 W +51 m S 86 8.76 Kn S 76 9.00 Kn 19 30.1 hg In +11.1 C +12.0 C
7/10/2006 5:27 4845.8901 N 08639.0701 W +56 m P 5 11.70 Kn P 5 11.80 Kn 17 30.1 hg In +11.4 C +11.8 C
7/10/2006 5:38 On Station 60m 4845.8000 N 08639.2602 W +62 m S 94 5.57 Kn S 83 5.60 Kn 39 30.1 hg In +11.6 C +12.2 C
7/10/2006 6:09 On Station 75m 4845.6701 N 08639.5901 W +76 m S 23 8.05 Kn S 21 8.70 Kn 12 30.1 hg In +12.3 C +11.7 C
7/10/2006 6:10 4845.6701 N 08639.5901 W +75 m 7.80 Kn 7.90 Kn 17 30.1 hg In +12.3 C +11.6 C
7/10/2006 6:28 4845.5902 N 08639.7803 W +89 m S 135 4.29 Kn S 66 3.30 Kn 12 30.1 hg In +12.5 C +11.8 C
7/10/2006 6:36 On Station 100m 4845.4902 N 08640.0200 W +102 m P 20 8.53 Kn P 19 9.00 Kn 20 30.1 hg In +12.5 C +11.9 C
7/10/2006 7:22 On Station 150m 4844.3900 N 08642.3703 W +153 m S 30 9.21 Kn S 27 10.00 Kn 28 30.0 hg In +12.2 C +11.8 C
7/10/2006 7:28 4844.3900 N 08642.3801 W +153 m S 7 9.50 Kn S 7 9.70 Kn 23 30.1 hg In +11.8 C +11.8 C
7/10/2006 8:23 On Station 200m 4842.0801 N 08647.2302 W +206 m 9.00 Kn 11.30 Kn 45 30.0 hg In +10.4 C +11.5 C
7/10/2006 8:23 4842.0801 N 08647.2302 W +205 m S 4 9.10 Kn S 3 11.00 Kn 51 30.1 hg In +10.4 C +11.5 C
7/10/2006 8:28 4842.0902 N 08647.2401 W +208 m S 64 9.01 Kn S 63 9.10 Kn 110 30.1 hg In +10.4 C +11.6 C
7/10/2006 9:11 Depart Ashburton Enroute Canadian Point C-143T 4842.0600 N 08647.2802 W +208 m S 24 10.54 Kn S 23 11.00 Kn 43 30.1 hg In +10.8 C +10.9 C
7/10/2006 9:28 4840.0800 N 08645.0701 W +111 m P 96 19.67 Kn P 66 21.40 Kn 43 30.0 hg In +10.4 C +11.4 C
7/10/2006 10:28 4830.7702 N 08634.4503 W +157 m P 99 18.82 Kn P 64 20.70 Kn 39 30.0 hg In +9.1 C +9.7 C
7/10/2006 11:28 4821.5000 N 08623.9701 W +234 m P 114 15.76 Kn P 70 15.30 Kn 25 30.0 hg In +9.5 C +9.4 C
7/10/2006 12:28 4812.3401 N 08613.6900 W +124 m S 175 5.75 Kn S 5 6.20 Kn 317 30.0 hg In +10.2 C +11.8 C
7/10/2006 13:28 4803.3202 N 08603.6501 W +130 m P 90 3.39 Kn P 16 12.30 Kn 52 30.0 hg In +11.4 C +12.5 C
7/10/2006 14:19 On Station Pukaskawa 100M 4757.8701 N 08557.8000 W +94 m P 152 1.98 Kn P 110 1.00 Kn 314 30.0 hg In +11.8 C +13.2 C
7/10/2006 14:28 4757.9201 N 08557.9201 W +92 m S 112 0.97 Kn S 88 0.90 Kn 219 30.0 hg In +11.8 C +14.6 C
7/10/2006 15:28 4758.2901 N 08558.1602 W +96 m P 36 11.41 Kn P 34 11.90 Kn 281 30.0 hg In +12.0 C +11.3 C
7/10/2006 16:09 putting CTD to 45m 4758.5200 N 08557.9902 W +92 m S 7 8.81 Kn S 6 9.90 Kn 298 30.0 hg In +12.1 C +12.1 C
7/10/2006 16:28 4758.5700 N 08557.8201 W +88 m S 17 9.52 Kn S 16 9.90 Kn 305 30.0 hg In +12.2 C +12.3 C
7/10/2006 16:49 4758.7401 N 08558.7602 W +98 m S 3 5.10 Kn S 3 5.50 Kn 291 30.0 hg In +12.3 C +12.6 C
7/10/2006 17:28 4758.8901 N 08558.6000 W +97 m S 171 4.83 Kn S 161 2.40 Kn 306 30.0 hg In +12.3 C +13.4 C
7/10/2006 18:01 MTU WP Pukawaskwa .25mi off Beach 4759.6001 N 08553.9601 W +23.1 m S 5 7.60 Kn S 5 7.80 Kn 301 30.0 hg In +12.5 C +13.2 C
7/10/2006 18:28 4759.3300 N 08554.7301 W +31 m S 26 9.20 Kn S 23 10.20 Kn 301 30.0 hg In +12.7 C +14.0 C
7/10/2006 18:28 MTU WP Pukawaskwa 30m 4759.3300 N 08554.7399 W +32 m S 9 8.71 Kn S 8 9.30 Kn 295 30.0 hg In +12.7 C +13.8 C
7/10/2006 18:38 MTU WP Pukawaskwa 40m 4759.1700 N 08554.9403 W +41 m S 68 7.01 Kn S 60 7.50 Kn 310 30.0 hg In +13.0 C +13.8 C
7/10/2006 18:51 4759.0801 N 08555.1600 W +49 m S 4 7.40 Kn S 4 7.60 Kn 299 30.0 hg In +13.0 C +13.5 C
7/10/2006 18:51 MTU WP Pukawaskwa 50m 4759.0700 N 08555.1502 W +50 m S 112 7.61 Kn S 110 7.50 Kn 46 30.0 hg In +13.0 C +13.4 C
7/10/2006 19:09 MTU WP Pukawaskwa 60m 4758.8801 N 08555.6403 W +60 m S 44 8.93 Kn S 39 9.90 Kn 317 30.0 hg In +13.2 C +13.6 C
7/10/2006 19:28 4758.9001 N 08555.5801 W +59 m S 4 7.70 Kn S 4 8.00 Kn 316 30.0 hg In +13.2 C +13.9 C
7/10/2006 19:49 MTU WP Pukawaskwa 75m 4758.6901 N 08556.0403 W +75 m S 18 8.10 Kn S 18 8.20 Kn 309 30.0 hg In +13.2 C +14.2 C
7/10/2006 20:28 4758.5700 N 08556.1001 W +76 m S 76 9.62 Kn S 64 10.40 Kn 324 30.0 hg In +13.2 C +14.5 C
7/10/2006 20:32 4758.5700 N 08556.1501 W +76 m S 21 7.52 Kn S 20 7.80 Kn 329 30.0 hg In +13.2 C +14.1 C
7/10/2006 21:15 MTU WP Pukawaskwa 100m 4756.7501 N 08600.0101 W +101 m S 20 7.52 Kn S 19 7.80 Kn 283 30.0 hg In +13.2 C +13.2 C
7/10/2006 21:28 4756.6900 N 08600.1302 W +104 m S 28 8.90 Kn S 15 16.20 Kn 289 30.0 hg In +13.1 C +13.0 C
7/10/2006 21:48 MTU WP Pukawaskwa 150m 4754.9201 N 08603.9402 W +153 m P 7 3.41 Kn P 5 4.50 Kn 303 30.0 hg In +12.9 C +13.0 C
7/10/2006 22:28 4752.7700 N 08608.5301 W +107 m S 61 6.64 Kn S 21 16.20 Kn 298 30.0 hg In +12.7 C +12.3 C
7/10/2006 22:49 On Station 200M 4751.7700 N 08610.6902 W +208 m S 30 4.83 Kn S 29 5.00 Kn 313 30.0 hg In +12.5 C +11.7 C
7/10/2006 23:23 Box Core 4751.7700 N 08610.6800 W +207 m P 14 5.80 Kn P 14 5.90 Kn 306 30.0 hg In +12.5 C +11.6 C
7/10/2006 23:28 4751.7801 N 08610.6902 W +209 m P 16 6.30 Kn P 16 6.40 Kn 309 30.0 hg In +12.5 C +11.5 C
7/10/2006 23:36 Depart Pukawaskwa Enroute Deep Hole C-272T 4751.7700 N 08610.6800 W +208 m S 1 6.40 Kn S 1 6.50 Kn 325 30.0 hg In +12.5 C +11.6 C
7/11/2006 0:28 4752.0501 N 08625.2500 W +191 m S 61 5.25 Kn S 18 14.80 Kn 334 30.0 hg In +11.5 C +10.3 C
7/11/2006 1:28 4752.3501 N 08642.7600 W +277 m S 61 3.40 Kn S 13 13.20 Kn 332 30.0 hg In +10.2 C +10.4 C
7/11/2006 2:28 On Station "NO" Deep Hole 4752.4001 N 08657.2702 W +257 m S 167 2.46 Kn S 159 1.60 Kn 227 30.0 hg In +9.7 C +11.3 C
7/11/2006 2:49 Depart Enroute Tue AM 4752.2700 N 08657.3903 W +255 m S 139 0.90 Kn S 123 0.70 Kn 202 30.0 hg In +9.8 C +10.5 C
7/11/2006 3:28 4748.4401 N 08658.8201 W +273 m 0.70 Kn 7.40 Kn 189 30.0 hg In +9.9 C +10.6 C
7/11/2006 4:28 4741.5600 N 08700.9302 W +302 m S 25 5.79 Kn S 12 11.90 Kn 213 30.0 hg In +9.5 C +9.7 C
7/11/2006 5:28 4734.8401 N 08702.9801 W +320 m P 37 6.98 Kn P 19 12.80 Kn 152 30.0 hg In +9.5 C +10.2 C
7/11/2006 6:28 4728.1002 N 08705.0300 W +332 m P 18 7.16 Kn P 9 13.80 Kn 171 30.0 hg In +9.8 C +10.3 C
7/11/2006 7:28 4721.3700 N 08707.0700 W +298 m P 43 6.07 Kn P 20 12.00 Kn 148 30.0 hg In +9.7 C +10.6 C
7/11/2006 8:28 4714.5801 N 08709.1100 W +51 m P 79 8.49 Kn P 44 12.00 Kn 111 30.0 hg In +9.7 C +10.7 C
7/11/2006 9:28 4707.7301 N 08711.1603 W +150 m P 54 8.37 Kn P 29 13.90 Kn 136 30.0 hg In +10.2 C +12.2 C
7/11/2006 10:28 4700.8502 N 08713.2200 W +148 m P 62 8.46 Kn P 33 13.70 Kn 128 30.0 hg In +11.4 C +13.3 C
7/11/2006 11:28 4654.1002 N 08715.2101 W +171 m P 65 8.08 Kn P 35 12.80 Kn 124 30.0 hg In +12.3 C +14.4 C
7/11/2006 12:28 4646.9500 N 08717.3300 W +124 m P 33 10.52 Kn P 19 17.50 Kn 157 30.0 hg In +13.0 C +14.7 C
7/11/2006 13:03 MTU WP TUES AM 4643.6901 N 08718.2800 W +129 m S 29 8.11 Kn S 29 8.20 Kn 150 30.0 hg In +13.0 C +15.1 C
7/11/2006 13:28 4643.7301 N 08718.2603 W +129 m P 12 6.11 Kn P 11 6.40 Kn 127 30.0 hg In +13.0 C +15.2 C
7/11/2006 13:55 MTU WP TUES AM -Optical Instruments 4643.9002 N 08718.3800 W +135 m P 166 6.48 Kn P 165 5.90 Kn 140 30.0 hg In +13.2 C +16.1 C
7/11/2006 14:28 4644.0801 N 08718.5701 W +130 m P 157 5.98 Kn P 156 5.80 Kn 123 30.0 hg In +13.2 C +17.5 C
7/11/2006 15:25 MTU WP TUES AM -Rosette 4644.3200 N 08719.0402 W +112 m P 165 3.58 Kn P 163 3.20 Kn 124 30.0 hg In +13.4 C +17.6 C
7/11/2006 15:28 4644.3401 N 08719.0603 W +111 m P 169 3.39 Kn P 167 3.00 Kn 131 30.0 hg In +13.4 C +16.9 C
7/11/2006 16:03 Depart Station Enroute Partridge Island C-190T 4644.1700 N 08718.5201 W +132 m P 111 6.15 Kn P 98 5.80 Kn 121 30.0 hg In +13.4 C +16.1 C
7/11/2006 16:28 4640.0000 N 08719.6201 W +105 m P 76 7.90 Kn P 29 15.80 Kn 113 30.0 hg In +13.7 C +17.1 C
7/11/2006 16:51 c/c 198T 4635.5900 N 08720.7200 W +66 m P 114 4.76 Kn P 24 10.70 Kn 74 30.0 hg In +14.8 C +18.7 C
7/11/2006 17:11 Marquette Breakwater 4632.0101 N 08722.3900 W +13.3 m P 143 8.03 Kn P 42 7.30 Kn 55 30.0 hg In +15.8 C +18.9 C
7/11/2006 17:28 4632.5601 N 08723.1600 W +8.82 m P 65 5.25 Kn P 55 5.80 Kn 42 30.0 hg In +16.5 C +19.3 C
7/11/2006 17:36 Moored Marquette City Dock 4632.5701 N 08723.2502 W +6.41 m P 27 7.70 Kn P 27 7.70 Kn 63 30.0 hg In +16.6 C +20.0 C
7/11/2006 18:28 4632.5801 N 08723.2502 W +6.41 m P 15 3.90 Kn P 15 3.90 Kn 74 30.0 hg In +16.9 C +20.3 C
7/11/2006 19:17 Depart Marqette 4632.5801 N 08723.2502 W +6.44 m P 8 7.30 Kn P 8 7.40 Kn 82 30.0 hg In +17.2 C +19.9 C
7/11/2006 19:28 4632.0001 N 08722.6600 W +10.6 m P 83 4.97 Kn P 35 8.60 Kn 50 30.0 hg In +17.2 C +18.9 C
7/11/2006 19:28 Marquette Breakwater 4631.9601 N 08722.5900 W +11.9 m P 86 4.42 Kn P 33 8.10 Kn 44 30.0 hg In +17.2 C +18.9 C
7/11/2006 19:50 c/c 320T 4635.2501 N 08720.8302 W +70 m S 43 11.87 Kn S 22 21.80 Kn 58 30.0 hg In +17.5 C +18.3 C
7/11/2006 20:28 4641.0401 N 08727.7602 W +64 m S 88 9.95 Kn S 39 15.80 Kn 49 30.0 hg In +17.9 C +17.5 C
7/11/2006 21:18 On Station Granite Pt 15M 4646.9801 N 08735.1700 W +15.2 m P 73 5.50 Kn P 70 5.60 Kn 93 30.0 hg In +18.0 C +18.4 C
7/11/2006 21:28 4647.2801 N 08734.5401 W +24.2 m S 32 6.54 Kn S 18 11.20 Kn 91 30.0 hg In +18.0 C +17.5 C
7/11/2006 21:37 On Station 30M 4647.5501 N 08734.0303 W +30 m S 52 6.80 Kn S 39 8.50 Kn 116 30.0 hg In +18.0 C +17.4 C
7/11/2006 22:18 On Station 40M 4647.9602 N 08733.3303 W +41 m S 84 3.88 Kn S 57 4.60 Kn 136 30.0 hg In +17.9 C +17.2 C
7/11/2006 22:28 4648.0102 N 08733.1602 W +48 m S 67 6.93 Kn S 55 7.80 Kn 131 30.0 hg In +17.9 C +16.9 C
7/11/2006 22:29 On Station 50M 4648.0200 N 08733.1201 W +51 m S 118 4.08 Kn S 92 3.60 Kn 178 30.0 hg In +17.9 C +17.2 C
7/11/2006 22:47 On Station 60M 4648.0300 N 08733.0402 W +62 m S 104 4.02 Kn S 91 3.90 Kn 154 30.0 hg In +17.9 C +17.6 C
7/11/2006 23:01 On Station 75M 4648.1501 N 08732.9402 W +77 m S 127 3.13 Kn S 105 2.60 Kn 180 30.0 hg In +17.9 C +18.1 C
7/11/2006 23:28 4648.4601 N 08732.3500 W +62 m S 81 4.13 Kn S 49 5.40 Kn 141 30.0 hg In +17.9 C +17.2 C
7/12/2006 0:25 On Station 100M 4651.4200 N 08726.8102 W +102 m S 45 1.58 Kn S 18 3.60 Kn 102 30.0 hg In +17.8 C +15.8 C
7/12/2006 0:28 4651.4401 N 08726.8000 W +103 m P 6 2.30 Kn P 5 2.70 Kn 59 30.0 hg In +17.6 C +15.9 C
7/12/2006 1:28 4651.7800 N 08726.7700 W +107 m S 96 4.12 Kn S 44 5.90 Kn 148 30.0 hg In +17.1 C +15.9 C
7/12/2006 2:04 On Station 150M 4653.7500 N 08722.5203 W +157 m P 78 3.40 Kn P 72 3.50 Kn 155 30.0 hg In +16.9 C +15.3 C
7/12/2006 2:28 4653.9401 N 08722.6400 W +160 m S 50 3.27 Kn S 47 3.40 Kn 138 30.0 hg In +16.6 C +15.3 C
7/12/2006 2:28 4653.9401 N 08722.6400 W +160 m S 47 3.43 Kn S 46 3.50 Kn 137 30.0 hg In +16.6 C +15.3 C
7/12/2006 3:28 4648.1501 N 08733.0000 W +68 m P 148 3.90 Kn P 138 3.10 Kn 142 30.0 hg In +16.8 C +17.5 C
7/12/2006 4:28 4648.2101 N 08733.0201 W +66 m P 73 4.20 Kn P 73 4.20 Kn 73 30.0 hg In +17.9 C +17.5 C
7/12/2006 5:17 Anchored off Granite Point (ROV) 4648.2101 N 08733.0102 W +67 m P 115 3.80 Kn P 115 3.80 Kn 49 30.0 hg In +18.1 C +17.5 C
7/12/2006 5:28 4648.2101 N 08733.0102 W +66 m P 96 4.00 Kn P 96 4.00 Kn 53 30.0 hg In +18.1 C +17.4 C
7/12/2006 5:49 Depart Granite Point Anchorage 4648.1901 N 08732.9902 W +69 m P 86 4.88 Kn P 84 4.90 Kn 45 30.0 hg In +18.2 C +17.2 C
7/12/2006 6:28 4645.9400 N 08727.5102 W +69 m P 88 4.50 Kn P 27 9.90 Kn 30 30.0 hg In +18.3 C +15.9 C
7/12/2006 7:28 4641.4101 N 08716.6301 W +90 m P 119 5.75 Kn P 40 7.80 Kn 1 30.0 hg In +17.1 C +15.2 C
7/12/2006 8:28 4636.7901 N 08705.6303 W +86 m P 166 2.71 Kn P 6 6.20 Kn 313 30.0 hg In +16.5 C +16.6 C
7/12/2006 9:28 4632.2302 N 08655.1002 W +54 m S 156 4.32 Kn S 21 5.00 Kn 290 30.0 hg In +17.8 C +16.7 C
7/12/2006 9:30 MTU AU TRAIN Island 4632.0802 N 08654.8802 W +55 m S 155 3.83 Kn S 18 5.30 Kn 289 30.0 hg In +17.8 C +16.8 C
7/12/2006 10:26 Anchored Au Train Bay 4628.0202 N 08649.5502 W +19.5 m S 38 2.37 Kn S 33 2.70 Kn 186 30.0 hg In +18.1 C +15.4 C
7/12/2006 10:28 4628.0202 N 08649.5502 W +19.5 m S 38 3.54 Kn S 36 3.70 Kn 185 30.0 hg In +18.1 C +15.4 C
7/12/2006 11:28 4628.0202 N 08649.5301 W +19.2 m P 45 2.50 Kn P 45 2.50 Kn 205 30.0 hg In +18.3 C +16.0 C
7/12/2006 12:18 Anchor Aweigh 4628.0101 N 08649.5301 W +19.2 m P 40 2.50 Kn P 34 2.90 Kn 148 30.0 hg In +18.3 C +16.4 C
7/12/2006 12:28 4627.7800 N 08649.3403 W +15.4 m S 91 1.12 Kn S 41 1.70 Kn 225 30.0 hg In +18.3 C +16.2 C
7/12/2006 12:28 On Station 15M 4627.7800 N 08649.3301 W +15.4 m S 94 1.38 Kn S 54 1.70 Kn 223 30.0 hg In +18.4 C +16.2 C
7/12/2006 12:58 On Station 30M 4629.1101 N 08650.3202 W +30 m P 141 1.26 Kn P 88 0.80 Kn 217 30.0 hg In +18.4 C +16.8 C
7/12/2006 13:26 On Station 40M 4629.4902 N 08650.6202 W +41 m P 60 4.42 Kn P 50 5.00 Kn 294 30.0 hg In +18.4 C +16.8 C
7/12/2006 13:28 4629.4902 N 08650.6300 W +41 m P 75 2.67 Kn P 73 2.70 Kn 302 30.0 hg In +18.4 C +16.7 C
7/12/2006 13:40 On Station 50M 4629.7301 N 08650.8001 W +53 m P 74 3.52 Kn P 52 4.30 Kn 269 30.0 hg In +18.3 C +16.9 C
7/12/2006 14:01 Box Core 4629.7402 N 08650.8202 W +53 m P 73 3.60 Kn P 73 3.60 Kn 303 30.0 hg In +18.3 C +17.2 C
7/12/2006 14:28 4629.4201 N 08650.7300 W +40 m P 180 1.60 Kn P 133 313 30.0 hg In +18.4 C +19.0 C
7/12/2006 15:07 Commence Benthic Transect 4629.6100 N 08650.7103 W +46 m P 36 3.17 Kn P 26 4.20 Kn 320 30.0 hg In +18.4 C +17.8 C
7/12/2006 15:23 Completed Benthic Transect 4629.8301 N 08650.8702 W +58 m P 17 3.53 Kn P 13 4.50 Kn 331 30.0 hg In +18.4 C +18.0 C
7/12/2006 15:28 4629.8600 N 08650.9001 W +58 m P 58 4.43 Kn P 55 4.60 Kn 302 30.0 hg In +18.4 C +17.9 C
7/12/2006 16:28 4629.6000 N 08650.3903 W +42 m 6.00 Kn 9.40 Kn 314 30.0 hg In +18.6 C +19.3 C
7/12/2006 17:17 Commence E-W Benthic Transect 4629.7201 N 08650.8300 W +51 m S 17 3.93 Kn S 14 4.70 Kn 323 30.0 hg In +18.6 C +19.6 C
7/12/2006 17:28 4629.7600 N 08651.1201 W +51 m S 43 4.46 Kn S 34 5.40 Kn 338 30.0 hg In +18.6 C +19.4 C
7/12/2006 17:34 Completed E-W Benthic Transect 4629.7801 N 08651.2902 W +55 m S 38 4.47 Kn S 31 5.30 Kn 338 30.0 hg In +18.6 C +19.8 C
7/12/2006 18:16 On Station 60 M 4630.0100 N 08651.0001 W +62 m S 20 1.85 Kn S 11 3.30 Kn 4 30.0 hg In +18.9 C +19.9 C
7/12/2006 18:28 4630.1002 N 08651.0800 W +65 m S 2 3.90 Kn S 1 6.30 Kn 7 30.0 hg In +18.9 C +19.9 C
7/12/2006 18:40 On Station 70M 4630.7001 N 08651.4902 W +71 m S 85 3.36 Kn S 51 4.30 Kn 32 30.0 hg In +19.0 C +20.4 C
7/12/2006 18:58 On Station 80M 4630.9800 N 08651.7402 W +82 m S 45 3.34 Kn S 30 4.70 Kn 26 30.0 hg In +19.1 C +20.9 C
7/12/2006 19:25 On Station 100M 4631.5900 N 08652.1000 W +102 m P 125 3.55 Kn P 115 3.20 Kn 16 30.0 hg In +19.1 C +20.4 C
7/12/2006 19:28 4631.5800 N 08652.1602 W +102 m S 96 2.90 Kn S 84 2.90 Kn 40 30.0 hg In +19.1 C +21.1 C
7/12/2006 20:28 4636.5801 N 08655.8600 W +128 m S 115 3.42 Kn S 24 7.60 Kn 86 30.0 hg In +19.1 C +21.0 C
7/12/2006 20:50 On Station 150M 4638.7701 N 08657.4800 W +154 m S 144 4.10 Kn S 104 2.50 Kn 123 30.0 hg In +19.1 C +20.6 C
7/12/2006 21:28 4638.9201 N 08657.2501 W +151 m P 99 4.64 Kn P 95 4.60 Kn 63 30.0 hg In +19.1 C +19.8 C
7/12/2006 22:28 4633.3600 N 08653.4102 W +115 m P 97 4.35 Kn P 29 8.90 Kn 55 30.0 hg In +19.1 C +20.2 C
7/12/2006 23:04 Anchored Au Train Bay 50m 4629.7301 N 08650.8402 W +51 m S 7 4.50 Kn S 7 4.70 Kn 44 30.0 hg In +19.1 C +21.0 C
7/12/2006 23:28 4629.7100 N 08650.9001 W +50 m P 18 4.80 Kn P 18 4.90 Kn 51 30.0 hg In +19.7 C +20.8 C
7/13/2006 0:28 4629.7100 N 08650.9001 W +50 m P 36 3.30 Kn P 36 3.30 Kn 63 30.0 hg In +20.1 C +21.0 C
7/13/2006 1:28 4629.7100 N 08650.8902 W +50 m P 138 0.30 Kn P 138 0.30 Kn 323 30.0 hg In +20.3 C +22.1 C
7/13/2006 2:28 4629.7100 N 08650.8902 W +50 m S 63 3.80 Kn S 63 3.80 Kn 171 30.0 hg In +20.6 C +20.5 C
7/13/2006 3:28 4629.7201 N 08650.8902 W +50 m S 46 5.60 Kn S 46 5.60 Kn 178 30.0 hg In +20.6 C +20.1 C
7/13/2006 4:13 Anchor Aweigh 4629.7402 N 08650.8402 W +52 m S 71 3.45 Kn S 65 3.60 Kn 161 30.0 hg In +20.6 C +20.0 C
7/13/2006 4:28 4629.7201 N 08650.7103 W +56 m P 100 3.54 Kn P 85 3.50 Kn 168 30.0 hg In +20.6 C +19.8 C
7/13/2006 4:33 Commence E-W Transect 4629.7301 N 08650.8202 W +52 m P 100 4.36 Kn P 87 4.30 Kn 168 30.0 hg In +20.6 C +19.7 C
7/13/2006 4:51 Completed E-W Transect 4629.7801 N 08651.2902 W +55 m P 105 4.66 Kn P 93 4.50 Kn 166 30.0 hg In +20.5 C +19.7 C
7/13/2006 5:28 4629.9401 N 08651.5701 W +67 m P 106 5.40 Kn P 102 5.30 Kn 164 30.0 hg In +20.5 C +19.3 C
7/13/2006 6:08 Commence W-E Transect 4629.7801 N 08651.2902 W +55 m S 55 10.00 Kn S 51 10.60 Kn 171 30.0 hg In +20.5 C +19.4 C
7/13/2006 6:27 Completed W-E Transect 4629.7301 N 08650.8300 W +51 m S 64 10.62 Kn S 59 11.10 Kn 178 30.0 hg In +20.5 C +19.4 C
7/13/2006 6:28 4629.7201 N 08650.8001 W +52 m S 60 9.74 Kn S 57 10.10 Kn 177 30.0 hg In +20.5 C +19.3 C
7/13/2006 6:49 Commenced E-W Transect 4629.7301 N 08650.8202 W +52 m P 98 8.89 Kn P 91 8.80 Kn 168 30.0 hg In +20.5 C +19.7 C
7/13/2006 7:06 Completed E-W Transect 4629.7701 N 08651.3001 W +54 m P 108 7.16 Kn P 99 6.90 Kn 159 30.0 hg In +20.5 C +19.6 C
7/13/2006 7:28 4630.0301 N 08650.8603 W +62 m S 76 9.51 Kn S 35 16.10 Kn 153 30.0 hg In +20.5 C +19.4 C
7/13/2006 7:56 Anchored AuTrain Point 1.5 Shots Port 4629.6801 N 08645.2500 W +15.5 m S 5 5.50 Kn S 5 5.60 Kn 141 30.0 hg In +20.2 C +19.9 C
7/13/2006 8:28 4629.6902 N 08645.2500 W +15.6 m P 11 2.70 Kn P 11 2.70 Kn 122 30.0 hg In +20.2 C +21.6 C
7/13/2006 9:28 4629.6902 N 08645.2500 W +15.6 m P 67 3.20 Kn P 67 3.20 Kn 109 30.0 hg In +20.3 C +21.6 C
7/13/2006 10:28 4629.6902 N 08645.2500 W +15.6 m S 8 4.20 Kn S 8 4.30 Kn 203 30.0 hg In +20.3 C +22.4 C
7/13/2006 11:28 4629.6902 N 08645.2500 W +15.6 m P 96 5.60 Kn P 96 5.60 Kn 131 30.0 hg In +20.3 C +22.1 C
7/13/2006 12:28 4629.6902 N 08645.2603 W +15.6 m S 43 4.90 Kn S 43 4.90 Kn 161 30.0 hg In +20.3 C +22.9 C
7/13/2006 13:28 4629.6902 N 08645.2603 W +15.5 m S 87 4.49 Kn S 86 4.50 Kn 158 30.0 hg In +20.3 C +23.1 C
7/13/2006 13:47 Anchor Aweigh 4629.6801 N 08645.2500 W +15.4 m S 108 1.63 Kn S 105 1.60 Kn 218 30.0 hg In +20.4 C +23.8 C
7/13/2006 14:28 4626.8002 N 08640.5302 W +6.51 m P 52 2.89 Kn P 11 11.90 Kn 24 30.0 hg In +20.5 C +25.4 C
7/13/2006 14:58 Mooored Munising, MI 4624.8400 N 08639.1401 W +6.32 m P 125 2.52 Kn P 99 2.10 Kn 174 30.0 hg In +20.2 C +28.6 C
7/13/2006 15:28 4624.8400 N 08639.1401 W +6.32 m P 119 4.40 Kn P 119 4.40 Kn 179 30.0 hg In +20.2 C +29.3 C
7/13/2006 16:08 Depart Munising 4624.8400 N 08639.1401 W +6.26 m S 148 0.70 Kn S 148 0.70 Kn 87 29.9 hg In +20.0 C +30.0 C
7/13/2006 16:27 4627.4300 N 08636.9800 W +28.1 m S 113 1.50 Kn S 7 11.30 Kn 144 30.0 hg In +20.1 C +29.4 C
7/13/2006 16:28 4627.6800 N 08636.7001 W +15.8 m S 141 2.75 Kn S 10 9.90 Kn 181 30.0 hg In +20.1 C +29.4 C
7/13/2006 17:10 4633.3701 N 08628.7301 W +28.9 m P 101 3.71 Kn P 18 11.80 Kn 301 29.9 hg In +20.1 C +24.5 C
7/13/2006 17:28 4635.3701 N 08624.2701 W +43 m P 113 9.41 Kn P 47 11.80 Kn 304 29.9 hg In +20.0 C +24.6 C
7/13/2006 18:28 4641.8101 N 08609.7099 W +25.1 m P 106 8.13 Kn P 39 12.40 Kn 310 29.9 hg In +20.1 C +23.1 C
7/13/2006 18:33 WP 174 Au Sable Pt 4642.2802 N 08608.6600 W +28.1 m P 101 8.70 Kn P 40 13.30 Kn 316 29.9 hg In +20.1 C +22.9 C
7/13/2006 19:29 4643.4600 N 08552.6802 W +17.6 m S 11 6.98 Kn S 4 18.70 Kn 94 29.9 hg In +20.1 C +21.7 C
7/13/2006 20:29 4644.6300 N 08535.3403 W +106 m S 4 4.51 Kn S 1 16.20 Kn 89 29.9 hg In +20.0 C +21.7 C
7/13/2006 21:18 MTU Little Lake Harbor 4645.4900 N 08522.1001 W +19.7 m S 139 1.97 Kn S 17 4.40 Kn 224 29.9 hg In +19.8 C +22.2 C
7/13/2006 21:29 4645.0101 N 08521.6801 W +18.7 m P 137 4.00 Kn P 114 3.00 Kn 5 29.9 hg In +19.8 C +22.5 C
7/13/2006 21:49 MTU Little Lake Harbor 15m 4644.5700 N 08521.3801 W +15.0 m S 81 3.61 Kn S 66 3.90 Kn 60 29.9 hg In +19.8 C +22.8 C
7/13/2006 22:15 On Station 30M 4646.7000 N 08522.8800 W +31 m S 52 3.50 Kn S 38 4.50 Kn 29 29.9 hg In +20.0 C +22.9 C
7/13/2006 22:29 4646.9301 N 08523.0300 W +41 m S 55 5.68 Kn S 23 11.90 Kn 26 29.9 hg In +20.0 C +22.5 C
7/13/2006 22:35 On Station 40M 4646.9401 N 08523.0300 W +42 m P 170 2.60 Kn P 170 2.50 Kn 337 29.9 hg In +20.0 C +23.4 C
7/13/2006 22:53 On Station 50M 4647.3801 N 08523.3799 W +53 m S 47 2.03 Kn S 45 2.10 Kn 19 29.9 hg In +20.0 C +23.0 C
7/13/2006 23:29 4647.8901 N 08523.7603 W +61 m S 89 6.72 Kn S 45 9.50 Kn 61 29.9 hg In +20.1 C +22.5 C
7/13/2006 23:35 On Station 60M 4648.1501 N 08523.9500 W +63 m S 138 3.25 Kn S 123 2.60 Kn 98 29.9 hg In +20.1 C +22.5 C
7/14/2006 0:11 On Station 75M 4649.6101 N 08525.0303 W +77 m S 151 2.37 Kn S 131 1.50 Kn 115 29.9 hg In +20.1 C +22.7 C
7/14/2006 0:29 hourly log 4649.6701 N 08525.0102 W +75 m S 100 4.43 Kn S 97 4.40 Kn 84 29.9 hg In +20.1 C +22.4 C
7/14/2006 0:49 Start first Little Lake sled tow 4649.6400 N 08525.1200 W +76 m P 148 6.05 Kn P 140 5.00 Kn 85 29.9 hg In +20.1 C +21.9 C
7/14/2006 1:02 Stop first Little Lake sled tow 4649.5601 N 08525.3302 W +74 m P 119 5.34 Kn P 116 5.20 Kn 100 29.9 hg In +20.1 C +21.7 C
7/14/2006 1:23 Start second Little Lake sled tow 4649.6201 N 08525.2200 W +79 m S 43 7.86 Kn S 38 8.70 Kn 111 29.9 hg In +20.3 C +21.7 C
7/14/2006 1:29 hourly log 4649.6701 N 08525.1003 W +78 m S 44 7.38 Kn S 39 8.20 Kn 118 29.9 hg In +20.3 C +21.7 C
7/14/2006 1:35 Stop second Little Lake sled tow 4649.7101 N 08525.0102 W +76 m S 44 7.61 Kn S 42 7.90 Kn 120 29.9 hg In +20.3 C +21.8 C
7/14/2006 2:11 Box Core 4649.6101 N 08525.0102 W +77 m S 173 7.40 Kn S 173 7.30 Kn 354 29.9 hg In +20.6 C +23.6 C
7/14/2006 2:29 4651.1102 N 08526.1503 W +75 m P 144 9.70 Kn P 65 6.30 Kn 188 29.9 hg In +20.6 C +22.7 C
7/14/2006 2:42 On Station 100M 4652.9400 N 08527.4899 W +103 m P 138 10.96 Kn P 132 9.90 Kn 185 29.9 hg In +20.5 C +23.0 C
7/14/2006 3:29 On Station 150M 4654.7102 N 08528.8300 W +157 m S 42 10.08 Kn S 32 12.80 Kn 191 29.9 hg In +19.3 C +22.9 C
7/14/2006 4:29 4652.4802 N 08527.0301 W +88 m S 35 10.93 Kn S 23 16.20 Kn 188 29.9 hg In +18.5 C +22.2 C
7/14/2006 5:29 4646.9600 N 08523.0201 W +42 m S 31 10.73 Kn S 23 14.30 Kn 189 29.9 hg In +19.1 C +22.2 C
7/14/2006 6:29 4645.5201 N 08521.4100 W +20.6 m S 106 10.07 Kn S 102 9.90 Kn 200 29.9 hg In +19.8 C +23.0 C
7/14/2006 7:29 4645.4300 N 08521.1702 W +19.2 m S 101 7.93 Kn S 95 7.80 Kn 218 29.9 hg In +20.0 C +22.1 C
7/14/2006 8:29 4645.8101 N 08520.4801 W +22.0 m S 103 7.11 Kn S 98 7.00 Kn 208 29.9 hg In +20.0 C +21.4 C
7/14/2006 9:29 4650.0100 N 08520.8703 W +74 m P 174 7.83 Kn P 165 3.30 Kn 174 29.9 hg In +19.5 C +21.5 C
7/14/2006 9:48 On Station MTU 15KM Air 4651.4001 N 08521.0703 W +82 m P 161 8.23 Kn P 158 7.20 Kn 140 29.9 hg In +19.3 C +20.4 C
7/14/2006 10:16 4651.5800 N 08520.6801 W +77 m S 86 9.73 Kn S 82 9.80 Kn 187 29.9 hg In +19.3 C +20.2 C
7/14/2006 10:29 4651.5001 N 08520.8502 W +81 m P 63 9.39 Kn P 53 10.50 Kn 167 29.9 hg In +19.3 C +20.0 C
7/14/2006 11:29 4651.2200 N 08520.2101 W +74 m S 5 6.10 Kn S 5 6.30 Kn 154 29.9 hg In +19.2 C +19.5 C
7/14/2006 12:08 Depart 15km 4651.8702 N 08520.4002 W +63 m S 168 7.63 Kn S 55 2.00 Kn 153 29.9 hg In +19.0 C +20.4 C
7/14/2006 12:29 4654.8401 N 08520.5100 W +102 m S 162 6.77 Kn S 44 3.00 Kn 160 29.9 hg In +19.0 C +20.2 C
7/14/2006 13:10 4659.9902 N 08519.6802 W +101 m S 19 8.86 Kn S 17 10.00 Kn 123 29.9 hg In +17.6 C +18.7 C
7/14/2006 13:10 4659.9801 N 08519.6802 W +101 m S 19 8.35 Kn S 17 9.40 Kn 130 29.9 hg In +17.6 C +18.7 C
7/14/2006 13:10 On Station 30km 4659.9801 N 08519.6703 W +102 m S 9 7.41 Kn S 8 8.40 Kn 124 29.9 hg In +17.6 C +18.7 C
7/14/2006 13:29 4659.9601 N 08519.5503 W +102 m S 21 3.46 Kn S 16 4.60 Kn 128 29.9 hg In +17.3 C +18.5 C
7/14/2006 14:29 4659.6000 N 08519.1900 W +101 m S 32 7.36 Kn S 28 8.40 Kn 132 29.9 hg In +16.9 C +18.7 C
7/14/2006 15:00 Depart 30km 4659.4201 N 08519.2699 W +99 m S 31 12.13 Kn S 25 14.70 Kn 121 29.9 hg In +16.6 C +18.8 C
7/14/2006 15:29 4703.1801 N 08519.4003 W +111 m S 144 10.29 Kn S 88 6.10 Kn 143 29.9 hg In +16.4 C +18.7 C
7/14/2006 16:29 4711.2901 N 08518.8700 W +140 m S 145 11.37 Kn S 95 6.60 Kn 147 29.9 hg In +16.2 C +18.2 C
7/14/2006 17:11 On Station 60km Air 4716.8000 N 08518.3901 W +130 m S 3 9.90 Kn S 3 11.40 Kn 146 29.9 hg In +15.5 C +17.8 C
7/14/2006 17:29 4716.5400 N 08518.3901 W +129 m P 20 10.05 Kn P 19 10.80 Kn 150 29.9 hg In +15.5 C +17.6 C
7/14/2006 18:29 4716.7601 N 08519.0003 W +122 m S 17 8.84 Kn S 15 9.90 Kn 146 29.8 hg In +15.5 C +18.3 C
7/14/2006 18:59 Depart 60km Air 4716.9101 N 08519.0900 W +121 m S 113 7.77 Kn S 72 7.50 Kn 140 29.8 hg In +15.5 C +17.9 C
7/14/2006 19:29 4721.9102 N 08515.1300 W +313 m P 110 11.80 Kn P 54 13.70 Kn 279 29.8 hg In +15.2 C +18.3 C
7/14/2006 20:29 4732.3501 N 08506.7801 W +97 m P 99 9.61 Kn P 42 14.20 Kn 290 29.8 hg In +15.3 C +17.7 C
7/14/2006 21:05 On Station Gargantua 50M 4737.8901 N 08501.6702 W +50 m S 177 3.30 Kn S 175 1.90 Kn 203 29.8 hg In +16.5 C +19.0 C
7/14/2006 21:11 On Station 60M 4737.8600 N 08501.7702 W +66 m S 6 4.81 Kn S 5 5.90 Kn 243 29.8 hg In +16.5 C +19.0 C
7/14/2006 21:24 4737.8401 N 08501.7501 W +62 m P 26 3.21 Kn P 25 3.30 Kn 212 29.8 hg In +16.7 C +18.7 C
7/14/2006 21:27 On Station 70M 4737.7801 N 08501.9202 W +76 m P 125 2.27 Kn P 62 2.10 Kn 116 29.8 hg In +16.7 C +18.7 C
7/14/2006 21:29 4737.7801 N 08501.9202 W +76 m P 77 2.65 Kn P 73 2.70 Kn 157 29.8 hg In +16.7 C +18.5 C
7/14/2006 21:36 4737.7901 N 08501.9103 W +74 m P 85 2.29 Kn P 83 2.30 Kn 147 29.8 hg In +16.7 C +18.5 C
7/14/2006 21:40 On Station 80M 4737.7100 N 08502.0603 W +83 m P 100 2.66 Kn P 55 3.20 Kn 139 29.8 hg In +16.9 C +18.6 C
7/14/2006 22:15 On statjon 90M 4737.5902 N 08502.8103 W +94 m P 150 8.58 Kn P 140 6.60 Kn 100 29.8 hg In +17.2 C +19.2 C
7/14/2006 22:29 4737.6500 N 08502.8701 W +91 m P 70 2.89 Kn P 61 3.10 Kn 163 29.8 hg In +17.2 C +19.7 C
7/14/2006 22:36 On Station 100M 4737.5201 N 08503.3201 W +103 m P 88 6.80 Kn P 76 7.00 Kn 165 29.8 hg In +17.2 C +18.6 C
7/14/2006 22:55 4737.5902 N 08503.3500 W +98 m S 48 13.49 Kn S 46 13.90 Kn 181 29.8 hg In +17.2 C +18.3 C
7/14/2006 23:29 4731.8501 N 08507.0399 W +129 m P 38 7.74 Kn P 15 18.60 Kn 163 29.8 hg In +17.2 C +17.4 C
7/15/2006 0:15 Gargantua Transect on Bottom 4727.8301 N 08506.1802 W +83 m P 78 8.01 Kn P 71 8.30 Kn 154 29.8 hg In +16.4 C +16.7 C
7/15/2006 0:29 Gargantua Transect off Bottom 4727.7502 N 08506.5002 W +95 m P 78 6.92 Kn P 72 7.10 Kn 173 29.9 hg In +16.5 C +16.8 C
7/15/2006 0:55 Transect 2 on Bottom 4728.0200 N 08506.1601 W +89 m S 53 8.23 Kn S 48 8.80 Kn 201 29.9 hg In +16.5 C +16.8 C
7/15/2006 1:11 Transect 2 off Bottom 4727.8801 N 08505.9503 W +82 m S 81 6.38 Kn S 80 6.40 Kn 217 29.9 hg In +16.5 C +16.9 C
7/15/2006 1:22 CTD 4727.9502 N 08505.9503 W +84 m S 126 6.64 Kn S 122 6.30 Kn 222 29.9 hg In +16.5 C +16.4 C
7/15/2006 1:29 4728.0002 N 08505.9601 W +82 m S 95 3.71 Kn S 87 3.70 Kn 187 29.9 hg In +16.5 C +16.7 C
7/15/2006 1:38 Depart station 4728.0801 N 08506.0101 W +84 m S 114 5.42 Kn S 108 5.20 Kn 191 29.9 hg In +16.5 C +16.3 C
7/15/2006 2:29 4734.4201 N 08511.5401 W +300 m S 107 9.47 Kn S 46 12.60 Kn 169 29.8 hg In +16.6 C +16.1 C
7/15/2006 2:52 On station 150M 4736.1601 N 08506.8002 W +154 m S 82 7.25 Kn S 71 7.60 Kn 161 29.8 hg In +16.7 C +16.9 C
7/15/2006 3:29 4736.3300 N 08506.7703 W +150 m P 26 8.52 Kn P 25 8.70 Kn 146 29.8 hg In +16.7 C +17.6 C
7/15/2006 3:54 On Station 150m Gargantua (Boxcore) 4736.3702 N 08506.7801 W +154 m S 25 5.94 Kn S 23 6.40 Kn 175 29.8 hg In +16.9 C +17.5 C
7/15/2006 4:09 Depart 150m station (Enroute DeepHole) 4736.2400 N 08506.8301 W +156 m P 59 4.76 Kn P 26 9.30 Kn 179 29.9 hg In +16.9 C +17.5 C
7/15/2006 4:29 4734.5401 N 08511.6802 W +305 m P 45 6.72 Kn P 16 17.30 Kn 196 29.8 hg In +16.9 C +16.4 C
7/15/2006 5:29 4728.4401 N 08525.0602 W +171 m P 18 4.04 Kn P 5 14.30 Kn 217 29.9 hg In +16.4 C +13.9 C
7/15/2006 6:29 4722.9201 N 08536.7701 W +158 m P 73 2.89 Kn P 15 10.70 Kn 160 29.9 hg In +14.5 C +15.8 C
7/15/2006 7:29 4717.5701 N 08548.0703 W +228 m P 13 6.40 Kn P 5 16.40 Kn 220 29.9 hg In +14.4 C +16.9 C
7/15/2006 8:29 4711.8700 N 08600.0101 W +29.5 m S 49 12.08 Kn S 27 20.10 Kn 284 29.9 hg In +14.6 C +16.6 C
7/15/2006 9:29 4706.1101 N 08611.9901 W +334 m S 59 13.94 Kn S 36 20.40 Kn 291 29.9 hg In +14.8 C +16.2 C
7/15/2006 10:29 4701.2901 N 08621.9301 W +205 m S 54 13.98 Kn S 35 19.70 Kn 287 29.9 hg In +14.8 C +16.6 C
7/15/2006 11:29 4656.2400 N 08632.3102 W +223 m S 93 6.94 Kn S 36 11.80 Kn 326 29.9 hg In +14.8 C +16.4 C
7/15/2006 11:59 On Station Deep Hole 4654.5200 N 08635.8702 W +408 m P 180 0.20 Kn S 162 74 29.9 hg In +14.8 C +17.2 C
7/15/2006 12:29 4654.5602 N 08635.8502 W +409 m S 9 4.00 Kn S 9 4.10 Kn 190 29.9 hg In +14.8 C +17.8 C
7/15/2006 12:49 Depart Deep Hole Enroute Point Abbaye C-274T 4654.5700 N 08635.8502 W +409 m 5.30 Kn 5.50 Kn 169 29.9 hg In +14.8 C +17.1 C
7/15/2006 13:29 4655.0200 N 08646.7700 W +238 m P 111 9.74 Kn P 47 12.40 Kn 163 29.9 hg In +14.5 C +18.1 C
Event Date-Time GMT Log Comments Latitude Longitude Depth (needs x.973) TWA TWS AWA AWS TWD Pressure SST Air T


Copyright © 2006
Civil & Environmental Engineering Department at Michigan Tech
Department E-mail: cee@mtu.edu
Last Modified: July 26, 2006 C&EE Webmaster: ehgroth@mtu.edu